Latest METAR Data

Below are the latest METARs ("Meteorological Services to Airmen Reports"), for RNAS Culdrose and Newquay Airport.

EGDR - RNAS Culdrose
Distance from station: SW 6mi, 9km
Updated: Wed, 06-Jul-2022 12:50am BST
Mostly Cloudy
Mostly Cloudy
 Wind from NW
Wind: NW 6 mph , 9 km/h
Temperature: 59°F , 15°C
Dew Point: 59°F , 15°C
Humidity: 100%
Barometer: 30.42 inHg , 1030 hPa
Clouds: Mostly Cloudy
Visibility: 6 miles , 10 km
Cloud details: Mostly Cloudy 200 ft
2022/07/05 23:50 EGDR 052350Z AUTO 31005KT 9999 BKN002/// 15/15 Q1030
EGHQ - Newquay Airport
Distance from station: NE 21mi, 34km
Updated: Wed, 06-Jul-2022 1:20am BST
Mostly Cloudy
Mostly Cloudy
 Wind from WNW
Wind: WNW 6 mph , 9 km/h
Temperature: 59°F , 15°C
Dew Point: 59°F , 15°C
Humidity: 100%
Barometer: 30.45 inHg , 1031 hPa
Clouds: Mostly Cloudy
Visibility: 6 miles , 10 km
Cloud details: Few Clouds 1300 ft
Partly Cloudy 2900 ft
Mostly Cloudy 3800 ft
2022/07/06 00:20 EGHQ 060020Z AUTO 30005KT 9999 FEW013/// SCT029/// BKN038/// 15/15 Q1031
 
EGTE - Exeter Airport
Distance from station: ENE 88mi, 141km
Updated: Wed, 06-Jul-2022 1:20am BST
Few Clouds
Few Clouds
 Wind from varies
Wind: varies 3 mph , 6 km/h
Temperature: 55°F , 13°C
Dew Point: 55°F , 13°C
Humidity: 100%
Barometer: 30.39 inHg , 1029 hPa
Clouds: Few Clouds
Visibility: 6 miles , 10 km
Cloud details: Few Clouds 3000 ft
2022/07/06 00:20 EGTE 060020Z VRB03KT 9999 FEW030 13/13 Q1029
EGHE - St Marys, IOS
Distance from station: W 51mi, 82km
Updated: Tue, 05-Jul-2022 5:20pm BST
NOT Current
Partly Cloudy
Partly Cloudy
 Wind from NNW
Wind: NNW 15 mph , 24 km/h
Temperature: 64°F , 18°C
Dew Point: 57°F , 14°C
Humidity: 78%
Barometer: 30.39 inHg , 1029 hPa
Clouds: Partly Cloudy
Visibility: 6 miles , 10 km
Cloud details: Partly Cloudy 1800 ft
2022/07/05 16:20 EGHE 051620Z 34013KT 9999 SCT018 18/14 Q1029

Metar display script from Saratoga-Weather.org

 

 

UK - WEATHER STATION TOPSITES - UK World Weather Websites

Copyright © Carnkie Weather 2009 - 2022.